sensor_id;sensor_type;location;lat;lon;timestamp;pressure;altitude;pressure_sealevel;temperature;humidity
5691;BME280;2870;42.680;23.364;2022-09-09T00:02:18;95389.97;;;19.56;74.62
5691;BME280;2870;42.680;23.364;2022-09-09T00:04:52;95376.88;;;19.51;75.26
5691;BME280;2870;42.680;23.364;2022-09-09T00:07:37;95383.28;;;19.40;75.51
5691;BME280;2870;42.680;23.364;2022-09-09T00:10:15;95379.44;;;19.36;75.87
5691;BME280;2870;42.680;23.364;2022-09-09T00:12:51;95380.91;;;19.37;76.08
5691;BME280;2870;42.680;23.364;2022-09-09T00:15:22;95378.94;;;19.39;76.81
5691;BME280;2870;42.680;23.364;2022-09-09T00:17:54;95374.56;;;19.26;77.12
5691;BME280;2870;42.680;23.364;2022-09-09T00:20:29;95377.41;;;19.26;77.79
5691;BME280;2870;42.680;23.364;2022-09-09T00:23:08;95377.75;;;19.21;77.76
5691;BME280;2870;42.680;23.364;2022-09-09T00:25:41;95364.06;;;19.29;77.47
5691;BME280;2870;42.680;23.364;2022-09-09T00:28:18;95369.34;;;19.23;78.50
5691;BME280;2870;42.680;23.364;2022-09-09T00:30:46;95356.72;;;19.14;78.88
5691;BME280;2870;42.680;23.364;2022-09-09T00:33:16;95350.56;;;19.18;78.24
5691;BME280;2870;42.680;23.364;2022-09-09T00:35:49;95348.53;;;19.09;78.96
5691;BME280;2870;42.680;23.364;2022-09-09T00:38:20;95345.81;;;19.11;78.86
5691;BME280;2870;42.680;23.364;2022-09-09T00:40:53;95351.38;;;19.09;78.38
5691;BME280;2870;42.680;23.364;2022-09-09T00:43:26;95334.81;;;19.05;79.09
5691;BME280;2870;42.680;23.364;2022-09-09T00:46:25;95338.53;;;19.08;79.78
5691;BME280;2870;42.680;23.364;2022-09-09T00:49:01;95333.72;;;19.10;77.91
5691;BME280;2870;42.680;23.364;2022-09-09T00:51:37;95338.22;;;19.25;76.89
5691;BME280;2870;42.680;23.364;2022-09-09T00:54:28;95343.53;;;19.19;76.41
5691;BME280;2870;42.680;23.364;2022-09-09T00:57:07;95346.09;;;19.15;76.76
5691;BME280;2870;42.680;23.364;2022-09-09T00:59:46;95345.00;;;19.20;75.74
5691;BME280;2870;42.680;23.364;2022-09-09T01:02:21;95340.66;;;19.19;75.56
5691;BME280;2870;42.680;23.364;2022-09-09T01:04:51;95344.38;;;19.21;75.05
5691;BME280;2870;42.680;23.364;2022-09-09T01:07:18;95343.47;;;19.07;75.22
5691;BME280;2870;42.680;23.364;2022-09-09T01:09:57;95341.66;;;19.12;74.75
5691;BME280;2870;42.680;23.364;2022-09-09T01:12:28;95342.34;;;19.00;74.66
5691;BME280;2870;42.680;23.364;2022-09-09T01:15:07;95345.19;;;19.00;75.21
5691;BME280;2870;42.680;23.364;2022-09-09T01:17:48;95342.53;;;18.93;76.16
5691;BME280;2870;42.680;23.364;2022-09-09T01:20:22;95352.56;;;18.94;76.01
5691;BME280;2870;42.680;23.364;2022-09-09T01:23:04;95340.13;;;18.77;76.84
5691;BME280;2870;42.680;23.364;2022-09-09T01:26:16;95344.88;;;18.85;77.39
5691;BME280;2870;42.680;23.364;2022-09-09T01:28:46;95343.47;;;18.74;76.94
5691;BME280;2870;42.680;23.364;2022-09-09T01:31:17;95341.69;;;18.69;76.33
5691;BME280;2870;42.680;23.364;2022-09-09T01:33:44;95343.13;;;18.79;75.77
5691;BME280;2870;42.680;23.364;2022-09-09T01:36:15;95343.78;;;18.90;75.77
5691;BME280;2870;42.680;23.364;2022-09-09T01:38:44;95345.97;;;18.79;76.29
5691;BME280;2870;42.680;23.364;2022-09-09T01:41:11;95356.09;;;18.83;75.64
5691;BME280;2870;42.680;23.364;2022-09-09T01:43:39;95357.50;;;18.93;75.11
5691;BME280;2870;42.680;23.364;2022-09-09T01:46:06;95363.06;;;18.91;76.65
5691;BME280;2870;42.680;23.364;2022-09-09T01:48:33;95351.69;;;18.91;77.04
5691;BME280;2870;42.680;23.364;2022-09-09T01:51:00;95357.38;;;18.91;76.47
5691;BME280;2870;42.680;23.364;2022-09-09T01:53:27;95357.94;;;18.78;76.61
5691;BME280;2870;42.680;23.364;2022-09-09T01:56:11;95366.94;;;18.74;76.60
5691;BME280;2870;42.680;23.364;2022-09-09T01:58:52;95364.50;;;18.80;77.58
5691;BME280;2870;42.680;23.364;2022-09-09T02:01:30;95367.69;;;18.75;77.08
5691;BME280;2870;42.680;23.364;2022-09-09T02:04:07;95362.13;;;18.77;77.65
5691;BME280;2870;42.680;23.364;2022-09-09T02:06:38;95360.97;;;18.70;77.43
5691;BME280;2870;42.680;23.364;2022-09-09T02:09:11;95353.50;;;18.65;77.77
5691;BME280;2870;42.680;23.364;2022-09-09T02:11:38;95355.00;;;18.66;78.66
5691;BME280;2870;42.680;23.364;2022-09-09T02:14:11;95358.19;;;18.61;78.25
5691;BME280;2870;42.680;23.364;2022-09-09T02:16:41;95348.50;;;18.54;78.46
5691;BME280;2870;42.680;23.364;2022-09-09T02:19:12;95337.69;;;18.62;78.55
5691;BME280;2870;42.680;23.364;2022-09-09T02:21:44;95338.72;;;18.67;77.80
5691;BME280;2870;42.680;23.364;2022-09-09T02:24:14;95336.41;;;18.75;78.06
5691;BME280;2870;42.680;23.364;2022-09-09T02:26:44;95330.47;;;18.71;77.54
5691;BME280;2870;42.680;23.364;2022-09-09T02:29:17;95343.59;;;18.76;77.49
5691;BME280;2870;42.680;23.364;2022-09-09T02:31:47;95346.22;;;18.62;77.62
5691;BME280;2870;42.680;23.364;2022-09-09T02:34:18;95344.25;;;18.65;77.21
5691;BME280;2870;42.680;23.364;2022-09-09T02:36:47;95345.06;;;18.77;76.83
5691;BME280;2870;42.680;23.364;2022-09-09T02:39:15;95350.34;;;18.71;77.25
5691;BME280;2870;42.680;23.364;2022-09-09T02:41:42;95349.06;;;18.62;77.23
5691;BME280;2870;42.680;23.364;2022-09-09T02:44:10;95353.84;;;18.60;77.63
5691;BME280;2870;42.680;23.364;2022-09-09T02:46:55;95350.00;;;18.55;78.71
5691;BME280;2870;42.680;23.364;2022-09-09T02:49:29;95357.09;;;18.44;79.08
5691;BME280;2870;42.680;23.364;2022-09-09T02:52:01;95358.53;;;18.34;79.71
5691;BME280;2870;42.680;23.364;2022-09-09T02:54:30;95362.38;;;18.38;79.85
5691;BME280;2870;42.680;23.364;2022-09-09T02:57:03;95361.19;;;18.32;80.81
5691;BME280;2870;42.680;23.364;2022-09-09T02:59:33;95366.13;;;18.31;80.70
5691;BME280;2870;42.680;23.364;2022-09-09T03:02:01;95354.13;;;18.21;81.03
5691;BME280;2870;42.680;23.364;2022-09-09T03:04:28;95355.19;;;18.16;81.12
5691;BME280;2870;42.680;23.364;2022-09-09T03:06:56;95349.03;;;18.19;81.75
5691;BME280;2870;42.680;23.364;2022-09-09T03:09:23;95360.44;;;18.10;82.50
5691;BME280;2870;42.680;23.364;2022-09-09T03:11:51;95369.75;;;18.00;83.71
5691;BME280;2870;42.680;23.364;2022-09-09T03:14:20;95370.69;;;17.93;83.95
5691;BME280;2870;42.680;23.364;2022-09-09T03:16:50;95368.50;;;17.82;84.71
5691;BME280;2870;42.680;23.364;2022-09-09T03:19:18;95366.44;;;17.73;85.10
5691;BME280;2870;42.680;23.364;2022-09-09T03:21:45;95362.66;;;17.80;84.53
5691;BME280;2870;42.680;23.364;2022-09-09T03:24:11;95360.28;;;17.67;85.12
5691;BME280;2870;42.680;23.364;2022-09-09T03:26:38;95357.47;;;17.67;84.96
5691;BME280;2870;42.680;23.364;2022-09-09T03:29:05;95355.81;;;17.73;84.39
5691;BME280;2870;42.680;23.364;2022-09-09T03:31:32;95360.50;;;17.49;85.04
5691;BME280;2870;42.680;23.364;2022-09-09T03:33:59;95362.28;;;17.55;84.32
5691;BME280;2870;42.680;23.364;2022-09-09T03:36:28;95368.09;;;17.57;84.01
5691;BME280;2870;42.680;23.364;2022-09-09T03:38:55;95367.94;;;17.64;83.58
5691;BME280;2870;42.680;23.364;2022-09-09T03:41:24;95366.44;;;17.73;84.28
5691;BME280;2870;42.680;23.364;2022-09-09T03:43:51;95360.88;;;17.75;83.68
5691;BME280;2870;42.680;23.364;2022-09-09T03:46:19;95359.69;;;17.68;83.72
5691;BME280;2870;42.680;23.364;2022-09-09T03:48:46;95363.44;;;17.71;83.96
5691;BME280;2870;42.680;23.364;2022-09-09T03:51:13;95365.97;;;17.67;84.16
5691;BME280;2870;42.680;23.364;2022-09-09T03:53:42;95364.63;;;17.68;84.04
5691;BME280;2870;42.680;23.364;2022-09-09T03:56:09;95370.28;;;17.68;84.73
5691;BME280;2870;42.680;23.364;2022-09-09T03:58:36;95367.63;;;17.70;85.16
5691;BME280;2870;42.680;23.364;2022-09-09T04:01:05;95369.56;;;17.77;84.28
5691;BME280;2870;42.680;23.364;2022-09-09T04:03:34;95371.22;;;17.61;84.76
5691;BME280;2870;42.680;23.364;2022-09-09T04:06:02;95373.59;;;17.64;82.84
5691;BME280;2870;42.680;23.364;2022-09-09T04:08:30;95373.13;;;17.68;82.43
5691;BME280;2870;42.680;23.364;2022-09-09T04:11:00;95373.44;;;17.72;82.75
5691;BME280;2870;42.680;23.364;2022-09-09T04:13:30;95377.91;;;17.75;79.76
5691;BME280;2870;42.680;23.364;2022-09-09T04:15:59;95384.28;;;17.85;79.11
5691;BME280;2870;42.680;23.364;2022-09-09T04:18:26;95366.59;;;18.06;76.71
5691;BME280;2870;42.680;23.364;2022-09-09T04:20:54;95368.81;;;18.08;76.25
5691;BME280;2870;42.680;23.364;2022-09-09T04:23:23;95372.06;;;18.14;76.69
5691;BME280;2870;42.680;23.364;2022-09-09T04:25:51;95372.59;;;18.00;77.01
5691;BME280;2870;42.680;23.364;2022-09-09T04:28:21;95369.63;;;17.98;77.63
5691;BME280;2870;42.680;23.364;2022-09-09T04:30:49;95363.94;;;17.98;77.46
5691;BME280;2870;42.680;23.364;2022-09-09T04:33:18;95379.22;;;17.84;77.35
5691;BME280;2870;42.680;23.364;2022-09-09T04:35:46;95370.28;;;17.68;78.27
5691;BME280;2870;42.680;23.364;2022-09-09T04:38:14;95376.72;;;17.68;79.42
5691;BME280;2870;42.680;23.364;2022-09-09T04:40:42;95377.78;;;17.73;78.41
5691;BME280;2870;42.680;23.364;2022-09-09T04:43:09;95373.28;;;17.70;78.53
5691;BME280;2870;42.680;23.364;2022-09-09T04:45:37;95378.66;;;17.66;78.46
5691;BME280;2870;42.680;23.364;2022-09-09T04:48:05;95376.56;;;17.66;78.14
5691;BME280;2870;42.680;23.364;2022-09-09T04:50:32;95383.75;;;17.77;78.75
5691;BME280;2870;42.680;23.364;2022-09-09T04:53:00;95366.16;;;18.00;78.02
5691;BME280;2870;42.680;23.364;2022-09-09T04:55:27;95382.72;;;18.04;77.34
5691;BME280;2870;42.680;23.364;2022-09-09T04:57:54;95366.47;;;18.04;76.97
5691;BME280;2870;42.680;23.364;2022-09-09T05:00:22;95359.56;;;18.07;76.95
5691;BME280;2870;42.680;23.364;2022-09-09T05:02:50;95367.31;;;18.07;77.37
5691;BME280;2870;42.680;23.364;2022-09-09T05:05:17;95369.22;;;18.14;76.49
5691;BME280;2870;42.680;23.364;2022-09-09T05:07:45;95363.84;;;18.18;76.47
5691;BME280;2870;42.680;23.364;2022-09-09T05:10:12;95351.53;;;18.25;76.67
5691;BME280;2870;42.680;23.364;2022-09-09T05:12:40;95352.91;;;18.45;77.68
5691;BME280;2870;42.680;23.364;2022-09-09T05:15:07;95345.59;;;18.64;77.95
5691;BME280;2870;42.680;23.364;2022-09-09T05:17:35;95352.75;;;18.65;78.41
5691;BME280;2870;42.680;23.364;2022-09-09T05:20:04;95354.44;;;18.68;77.37
5691;BME280;2870;42.680;23.364;2022-09-09T05:22:30;95356.97;;;18.64;77.23
5691;BME280;2870;42.680;23.364;2022-09-09T05:24:57;95351.59;;;18.68;78.49
5691;BME280;2870;42.680;23.364;2022-09-09T05:27:24;95352.09;;;18.76;78.56
5691;BME280;2870;42.680;23.364;2022-09-09T05:29:51;95365.34;;;18.83;77.66
5691;BME280;2870;42.680;23.364;2022-09-09T05:32:17;95355.41;;;18.94;75.44
5691;BME280;2870;42.680;23.364;2022-09-09T05:34:44;95352.34;;;19.01;76.11
5691;BME280;2870;42.680;23.364;2022-09-09T05:37:13;95352.66;;;18.84;75.62
5691;BME280;2870;42.680;23.364;2022-09-09T05:39:40;95351.38;;;19.09;75.18
5691;BME280;2870;42.680;23.364;2022-09-09T05:42:07;95354.56;;;19.36;75.14
5691;BME280;2870;42.680;23.364;2022-09-09T05:44:34;95353.84;;;19.47;75.26
5691;BME280;2870;42.680;23.364;2022-09-09T05:47:00;95363.25;;;19.50;73.59
5691;BME280;2870;42.680;23.364;2022-09-09T05:49:27;95358.69;;;19.56;72.58
5691;BME280;2870;42.680;23.364;2022-09-09T05:51:54;95374.28;;;19.55;74.05
5691;BME280;2870;42.680;23.364;2022-09-09T05:54:22;95369.28;;;19.77;71.19
5691;BME280;2870;42.680;23.364;2022-09-09T05:56:49;95357.41;;;19.81;68.97
5691;BME280;2870;42.680;23.364;2022-09-09T05:59:18;95366.56;;;20.03;68.78
5691;BME280;2870;42.680;23.364;2022-09-09T06:01:44;95371.66;;;20.04;68.61
5691;BME280;2870;42.680;23.364;2022-09-09T06:04:12;95368.91;;;19.83;66.91
5691;BME280;2870;42.680;23.364;2022-09-09T06:06:39;95374.13;;;19.98;66.56
5691;BME280;2870;42.680;23.364;2022-09-09T06:09:08;95374.84;;;20.22;64.88
5691;BME280;2870;42.680;23.364;2022-09-09T06:11:39;95384.13;;;20.34;64.69
5691;BME280;2870;42.680;23.364;2022-09-09T06:14:07;95383.03;;;20.28;66.30
5691;BME280;2870;42.680;23.364;2022-09-09T06:16:34;95378.56;;;20.01;65.61
5691;BME280;2870;42.680;23.364;2022-09-09T06:19:03;95375.34;;;20.19;66.61
5691;BME280;2870;42.680;23.364;2022-09-09T06:21:32;95376.69;;;20.41;65.59
5691;BME280;2870;42.680;23.364;2022-09-09T06:23:59;95377.44;;;20.65;63.10
5691;BME280;2870;42.680;23.364;2022-09-09T06:26:27;95383.88;;;20.77;63.78
5691;BME280;2870;42.680;23.364;2022-09-09T06:28:58;95383.94;;;20.91;62.75
5691;BME280;2870;42.680;23.364;2022-09-09T06:31:26;95380.94;;;21.01;61.72
5691;BME280;2870;42.680;23.364;2022-09-09T06:33:56;95382.06;;;20.96;62.46
5691;BME280;2870;42.680;23.364;2022-09-09T06:36:25;95385.31;;;20.90;62.69
5691;BME280;2870;42.680;23.364;2022-09-09T06:38:53;95363.25;;;20.90;63.26
5691;BME280;2870;42.680;23.364;2022-09-09T06:41:21;95368.78;;;21.26;60.92
5691;BME280;2870;42.680;23.364;2022-09-09T06:43:48;95368.19;;;21.27;59.30
5691;BME280;2870;42.680;23.364;2022-09-09T06:46:18;95361.84;;;21.29;58.83
5691;BME280;2870;42.680;23.364;2022-09-09T06:48:45;95369.97;;;21.46;58.50
5691;BME280;2870;42.680;23.364;2022-09-09T06:51:14;95358.50;;;21.58;58.98
5691;BME280;2870;42.680;23.364;2022-09-09T06:53:43;95376.78;;;21.66;58.10
5691;BME280;2870;42.680;23.364;2022-09-09T06:56:19;95384.19;;;21.21;59.33
5691;BME280;2870;42.680;23.364;2022-09-09T06:58:47;95381.84;;;21.54;58.73
5691;BME280;2870;42.680;23.364;2022-09-09T07:01:15;95389.91;;;21.97;58.24
5691;BME280;2870;42.680;23.364;2022-09-09T07:03:46;95385.03;;;21.60;57.24
5691;BME280;2870;42.680;23.364;2022-09-09T07:06:14;95374.06;;;21.68;57.62
5691;BME280;2870;42.680;23.364;2022-09-09T07:08:42;95383.41;;;21.83;57.29
5691;BME280;2870;42.680;23.364;2022-09-09T07:11:09;95396.09;;;22.19;55.82
5691;BME280;2870;42.680;23.364;2022-09-09T07:13:36;95372.81;;;22.38;54.97
5691;BME280;2870;42.680;23.364;2022-09-09T07:16:04;95377.66;;;22.77;53.20
5691;BME280;2870;42.680;23.364;2022-09-09T07:18:31;95382.22;;;22.68;53.11
5691;BME280;2870;42.680;23.364;2022-09-09T07:21:02;95383.34;;;23.18;52.69
5691;BME280;2870;42.680;23.364;2022-09-09T07:23:30;95382.66;;;23.63;51.18
5691;BME280;2870;42.680;23.364;2022-09-09T07:25:57;95368.47;;;23.81;50.29
5691;BME280;2870;42.680;23.364;2022-09-09T07:28:24;95379.59;;;24.36;49.13
5691;BME280;2870;42.680;23.364;2022-09-09T07:30:55;95372.22;;;24.80;48.16
5691;BME280;2870;42.680;23.364;2022-09-09T07:33:23;95380.13;;;24.98;47.28
5691;BME280;2870;42.680;23.364;2022-09-09T07:35:50;95371.59;;;25.16;47.11
5691;BME280;2870;42.680;23.364;2022-09-09T07:38:19;95367.00;;;26.17;46.59
5691;BME280;2870;42.680;23.364;2022-09-09T07:40:46;95375.22;;;25.87;46.60
5691;BME280;2870;42.680;23.364;2022-09-09T07:43:13;95373.47;;;26.56;45.12
5691;BME280;2870;42.680;23.364;2022-09-09T07:45:41;95379.53;;;27.06;42.82
5691;BME280;2870;42.680;23.364;2022-09-09T07:48:08;95380.22;;;27.46;42.98
5691;BME280;2870;42.680;23.364;2022-09-09T07:50:36;95383.78;;;27.90;41.32
5691;BME280;2870;42.680;23.364;2022-09-09T07:53:03;95377.59;;;28.24;40.72
5691;BME280;2870;42.680;23.364;2022-09-09T07:55:32;95383.41;;;27.78;40.66
5691;BME280;2870;42.680;23.364;2022-09-09T07:57:59;95378.19;;;27.07;41.85
5691;BME280;2870;42.680;23.364;2022-09-09T08:00:26;95379.72;;;26.90;42.54
5691;BME280;2870;42.680;23.364;2022-09-09T08:02:53;95373.22;;;27.09;41.83
5691;BME280;2870;42.680;23.364;2022-09-09T08:05:20;95370.22;;;27.71;41.80
5691;BME280;2870;42.680;23.364;2022-09-09T08:07:47;95374.78;;;27.34;41.42
5691;BME280;2870;42.680;23.364;2022-09-09T08:10:14;95371.34;;;27.62;41.62
5691;BME280;2870;42.680;23.364;2022-09-09T08:12:42;95375.44;;;27.33;42.05
5691;BME280;2870;42.680;23.364;2022-09-09T08:15:09;95369.94;;;26.99;42.32
5691;BME280;2870;42.680;23.364;2022-09-09T08:17:36;95373.56;;;28.09;41.60
5691;BME280;2870;42.680;23.364;2022-09-09T08:20:04;95369.81;;;28.29;39.83
5691;BME280;2870;42.680;23.364;2022-09-09T08:22:31;95371.34;;;28.08;40.30
5691;BME280;2870;42.680;23.364;2022-09-09T08:24:58;95367.69;;;28.81;40.07
5691;BME280;2870;42.680;23.364;2022-09-09T08:27:25;95364.03;;;28.52;39.74
5691;BME280;2870;42.680;23.364;2022-09-09T08:29:53;95369.69;;;28.48;39.22
5691;BME280;2870;42.680;23.364;2022-09-09T08:32:21;95364.59;;;28.23;40.41
5691;BME280;2870;42.680;23.364;2022-09-09T08:34:48;95358.28;;;29.04;38.97
5691;BME280;2870;42.680;23.364;2022-09-09T08:37:16;95355.31;;;28.50;42.36
5691;BME280;2870;42.680;23.364;2022-09-09T08:39:44;95360.56;;;28.32;40.13
5691;BME280;2870;42.680;23.364;2022-09-09T08:42:25;95362.25;;;27.06;41.90
5691;BME280;2870;42.680;23.364;2022-09-09T08:45:15;95363.44;;;27.18;42.97
5691;BME280;2870;42.680;23.364;2022-09-09T08:47:54;95348.69;;;26.66;43.83
5691;BME280;2870;42.680;23.364;2022-09-09T08:50:26;95348.28;;;26.16;44.45
5691;BME280;2870;42.680;23.364;2022-09-09T08:52:57;95353.66;;;26.44;46.17
5691;BME280;2870;42.680;23.364;2022-09-09T08:55:35;95350.22;;;26.30;45.12
5691;BME280;2870;42.680;23.364;2022-09-09T08:58:11;95347.72;;;26.60;44.49
5691;BME280;2870;42.680;23.364;2022-09-09T09:00:47;95351.38;;;26.82;44.09
5691;BME280;2870;42.680;23.364;2022-09-09T09:03:24;95338.00;;;27.11;44.08
5691;BME280;2870;42.680;23.364;2022-09-09T09:06:04;95346.34;;;27.03;43.66
5691;BME280;2870;42.680;23.364;2022-09-09T09:08:39;95350.19;;;27.75;42.70
5691;BME280;2870;42.680;23.364;2022-09-09T09:11:09;95349.50;;;27.77;42.17
5691;BME280;2870;42.680;23.364;2022-09-09T09:13:43;95343.34;;;27.20;42.70
5691;BME280;2870;42.680;23.364;2022-09-09T09:16:20;95351.09;;;27.60;42.47
5691;BME280;2870;42.680;23.364;2022-09-09T09:18:49;95353.50;;;27.67;41.92
5691;BME280;2870;42.680;23.364;2022-09-09T09:21:21;95342.72;;;27.68;43.00
5691;BME280;2870;42.680;23.364;2022-09-09T09:23:56;95343.94;;;27.61;43.93
5691;BME280;2870;42.680;23.364;2022-09-09T09:26:25;95343.78;;;27.57;41.96
5691;BME280;2870;42.680;23.364;2022-09-09T09:28:57;95338.97;;;26.98;42.91
5691;BME280;2870;42.680;23.364;2022-09-09T09:31:26;95346.88;;;26.77;44.48
5691;BME280;2870;42.680;23.364;2022-09-09T09:33:54;95349.75;;;26.97;46.64
5691;BME280;2870;42.680;23.364;2022-09-09T09:36:24;95343.28;;;26.77;45.48
5691;BME280;2870;42.680;23.364;2022-09-09T09:38:55;95335.78;;;26.48;45.16
5691;BME280;2870;42.680;23.364;2022-09-09T09:41:33;95334.19;;;27.26;45.40
5691;BME280;2870;42.680;23.364;2022-09-09T09:44:02;95332.59;;;27.67;44.15
5691;BME280;2870;42.680;23.364;2022-09-09T09:46:31;95332.97;;;27.33;42.88
5691;BME280;2870;42.680;23.364;2022-09-09T09:48:59;95326.94;;;27.93;44.36
5691;BME280;2870;42.680;23.364;2022-09-09T09:51:28;95322.06;;;27.52;42.47
5691;BME280;2870;42.680;23.364;2022-09-09T09:54:09;95315.53;;;27.73;45.84
5691;BME280;2870;42.680;23.364;2022-09-09T09:56:41;95316.16;;;27.69;43.06
5691;BME280;2870;42.680;23.364;2022-09-09T09:59:20;95316.72;;;27.66;47.26
5691;BME280;2870;42.680;23.364;2022-09-09T10:01:48;95307.50;;;27.69;43.42
5691;BME280;2870;42.680;23.364;2022-09-09T10:04:17;95308.72;;;27.86;42.83
5691;BME280;2870;42.680;23.364;2022-09-09T10:06:46;95313.00;;;27.85;42.95
5691;BME280;2870;42.680;23.364;2022-09-09T10:09:23;95314.34;;;27.36;43.74
5691;BME280;2870;42.680;23.364;2022-09-09T10:11:57;95330.69;;;27.52;43.86
5691;BME280;2870;42.680;23.364;2022-09-09T10:14:35;95332.91;;;27.53;43.84
5691;BME280;2870;42.680;23.364;2022-09-09T10:17:17;95324.41;;;27.35;43.12
5691;BME280;2870;42.680;23.364;2022-09-09T10:20:04;95322.81;;;27.30;46.94
5691;BME280;2870;42.680;23.364;2022-09-09T10:22:39;95323.47;;;27.07;46.19
5691;BME280;2870;42.680;23.364;2022-09-09T10:25:22;95332.00;;;26.63;45.12
5691;BME280;2870;42.680;23.364;2022-09-09T10:28:04;95323.47;;;26.87;46.22
5691;BME280;2870;42.680;23.364;2022-09-09T10:30:41;95315.19;;;26.97;45.33
5691;BME280;2870;42.680;23.364;2022-09-09T10:33:21;95324.38;;;26.72;44.78
5691;BME280;2870;42.680;23.364;2022-09-09T10:35:58;95321.75;;;26.58;46.94
5691;BME280;2870;42.680;23.364;2022-09-09T10:38:39;95328.72;;;26.92;46.10
5691;BME280;2870;42.680;23.364;2022-09-09T10:41:19;95332.00;;;27.05;46.99
5691;BME280;2870;42.680;23.364;2022-09-09T10:44:10;95324.38;;;26.91;46.84
5691;BME280;2870;42.680;23.364;2022-09-09T10:46:52;95337.06;;;26.84;47.33
5691;BME280;2870;42.680;23.364;2022-09-09T10:49:42;95337.13;;;26.86;46.88
5691;BME280;2870;42.680;23.364;2022-09-09T10:52:17;95340.34;;;26.55;47.22
5691;BME280;2870;42.680;23.364;2022-09-09T10:54:55;95334.53;;;26.53;46.95
5691;BME280;2870;42.680;23.364;2022-09-09T10:57:28;95338.03;;;26.71;47.47
5691;BME280;2870;42.680;23.364;2022-09-09T11:00:03;95324.22;;;26.87;48.36
5691;BME280;2870;42.680;23.364;2022-09-09T11:02:32;95325.97;;;26.55;46.84
5691;BME280;2870;42.680;23.364;2022-09-09T11:05:03;95330.59;;;26.64;49.02
5691;BME280;2870;42.680;23.364;2022-09-09T11:07:37;95333.13;;;26.54;47.66
5691;BME280;2870;42.680;23.364;2022-09-09T11:10:17;95321.91;;;26.22;48.90
5691;BME280;2870;42.680;23.364;2022-09-09T11:12:50;95323.66;;;26.31;48.79
5691;BME280;2870;42.680;23.364;2022-09-09T11:15:23;95334.00;;;26.38;50.98
5691;BME280;2870;42.680;23.364;2022-09-09T11:17:56;95323.81;;;26.35;49.67
5691;BME280;2870;42.680;23.364;2022-09-09T11:20:26;95327.56;;;26.60;48.67
5691;BME280;2870;42.680;23.364;2022-09-09T11:22:57;95321.75;;;26.78;47.70
5691;BME280;2870;42.680;23.364;2022-09-09T11:25:30;95324.38;;;26.50;47.70
5691;BME280;2870;42.680;23.364;2022-09-09T11:30:59;95316.28;;;26.66;48.78
5691;BME280;2870;42.680;23.364;2022-09-09T11:36:43;95287.88;;;26.98;49.30
5691;BME280;2870;42.680;23.364;2022-09-09T11:42:20;95284.25;;;27.17;47.92
5691;BME280;2870;42.680;23.364;2022-09-09T11:44:47;95273.13;;;27.08;47.13
5691;BME280;2870;42.680;23.364;2022-09-09T11:47:23;95275.88;;;26.62;48.12
5691;BME280;2870;42.680;23.364;2022-09-09T11:49:54;95266.44;;;26.59;48.30
5691;BME280;2870;42.680;23.364;2022-09-09T11:52:24;95259.56;;;26.90;48.71
5691;BME280;2870;42.680;23.364;2022-09-09T11:54:54;95235.47;;;26.58;48.55
5691;BME280;2870;42.680;23.364;2022-09-09T11:57:26;95232.00;;;26.61;48.79
5691;BME280;2870;42.680;23.364;2022-09-09T11:59:54;95243.50;;;26.83;48.59
5691;BME280;2870;42.680;23.364;2022-09-09T12:02:24;95243.81;;;26.72;48.02
5691;BME280;2870;42.680;23.364;2022-09-09T12:04:56;95256.38;;;27.24;47.78
5691;BME280;2870;42.680;23.364;2022-09-09T12:07:33;95256.75;;;26.92;47.47
5691;BME280;2870;42.680;23.364;2022-09-09T12:10:05;95253.00;;;27.32;47.51
5691;BME280;2870;42.680;23.364;2022-09-09T12:12:45;95243.28;;;26.99;46.94
5691;BME280;2870;42.680;23.364;2022-09-09T12:15:22;95246.00;;;27.15;49.10
5691;BME280;2870;42.680;23.364;2022-09-09T12:17:52;95237.19;;;27.57;47.47
5691;BME280;2870;42.680;23.364;2022-09-09T12:20:21;95227.94;;;27.60;45.94
5691;BME280;2870;42.680;23.364;2022-09-09T12:23:19;95230.72;;;27.80;46.35
5691;BME280;2870;42.680;23.364;2022-09-09T12:26:06;95225.00;;;27.82;46.82
5691;BME280;2870;42.680;23.364;2022-09-09T12:28:45;95237.78;;;28.01;46.34
5691;BME280;2870;42.680;23.364;2022-09-09T12:31:16;95225.22;;;27.90;45.56
5691;BME280;2870;42.680;23.364;2022-09-09T12:33:46;95225.25;;;27.66;45.68
5691;BME280;2870;42.680;23.364;2022-09-09T12:36:16;95210.56;;;27.80;46.44
5691;BME280;2870;42.680;23.364;2022-09-09T12:38:47;95204.41;;;27.44;46.98
5691;BME280;2870;42.680;23.364;2022-09-09T12:41:26;95207.03;;;27.12;49.01
5691;BME280;2870;42.680;23.364;2022-09-09T12:44:03;95205.03;;;27.40;48.31
5691;BME280;2870;42.680;23.364;2022-09-09T12:46:36;95195.06;;;27.45;47.73
5691;BME280;2870;42.680;23.364;2022-09-09T12:49:04;95197.47;;;27.53;48.29
5691;BME280;2870;42.680;23.364;2022-09-09T12:51:33;95196.34;;;27.88;50.13
5691;BME280;2870;42.680;23.364;2022-09-09T12:54:03;95188.28;;;27.59;47.73
5691;BME280;2870;42.680;23.364;2022-09-09T12:56:31;95200.38;;;27.77;47.86
5691;BME280;2870;42.680;23.364;2022-09-09T12:58:58;95196.69;;;28.00;48.04
5691;BME280;2870;42.680;23.364;2022-09-09T13:01:27;95190.47;;;28.10;46.30
5691;BME280;2870;42.680;23.364;2022-09-09T13:03:55;95188.72;;;27.99;48.14
5691;BME280;2870;42.680;23.364;2022-09-09T13:06:24;95188.66;;;28.23;46.87
5691;BME280;2870;42.680;23.364;2022-09-09T13:08:51;95187.34;;;28.28;46.76
5691;BME280;2870;42.680;23.364;2022-09-09T13:11:22;95183.00;;;28.27;46.48
5691;BME280;2870;42.680;23.364;2022-09-09T13:13:53;95179.69;;;28.11;47.54
5691;BME280;2870;42.680;23.364;2022-09-09T13:16:23;95182.97;;;28.53;46.27
5691;BME280;2870;42.680;23.364;2022-09-09T13:18:52;95184.91;;;28.44;47.39
5691;BME280;2870;42.680;23.364;2022-09-09T13:21:31;95181.72;;;28.32;46.56
5691;BME280;2870;42.680;23.364;2022-09-09T13:23:58;95183.31;;;28.37;47.94
5691;BME280;2870;42.680;23.364;2022-09-09T13:26:29;95173.84;;;28.63;46.77
5691;BME280;2870;42.680;23.364;2022-09-09T13:29:09;95164.00;;;28.44;46.62
5691;BME280;2870;42.680;23.364;2022-09-09T13:31:44;95158.97;;;28.44;46.17
5691;BME280;2870;42.680;23.364;2022-09-09T13:34:12;95163.88;;;28.40;46.40
5691;BME280;2870;42.680;23.364;2022-09-09T13:36:40;95167.69;;;27.94;46.94
5691;BME280;2870;42.680;23.364;2022-09-09T13:39:16;95151.53;;;27.83;47.59
5691;BME280;2870;42.680;23.364;2022-09-09T13:41:46;95156.78;;;27.91;47.56